Detall de PIREP

Printer-friendly versionPDF version

[2010/12/26 18:37:00]
Flight IATA:CT2113
Pilot Number:026
Company ICAO:CAT
Aircraft Type:DC85/A
PAX:136
Departing Airport: LEZL
Destination Airport: LEVC
Alternate Airport:LEPA
Online: VATSIM
Route:VIBAS UM985 ASTRO
Flight Level:FL260
No Slew and time accel
No pause
Crash detect
Detect pilot in Cockpit between each 30 and 45 minutes
18:37 Zero fuel Weight: 185719 Lbs, Fuel Weight: 24001 Lbs
18:37 VATSIM:LEZL 261800Z 00000KT CAVOK 06/01 Q1020 NOSIG
18:37 VATSIM:LEVC 261800Z 00000KT CAVOK 06/M05 Q1019 NOSIG
18:37 VOICE CATALONIAN / LEVC HUB ROUTE CT2113
18:48 Parking Brakes off
18:55 Take-off
18:55 Take off Weight: 208680 Lbs
18:55 Wind: 074º @ 002 Knots Heading: 089º
18:55 POS N37º 25´ 04´´ W005º 53´ 23´´
18:55 Gear Up: 169 Knots
18:55 Flaps:3 at 169 Knots
18:56 Flaps:2 at 198 Knots
18:57 Flaps:1 at 213 Knots
18:58 Flaps:0 at 235 Knots
19:09 TOC
19:09 Fuel Weight: 18764 Lb
19:10 Wind:080º@016 Knots Heading: 091º Ground Speed: 418 Knots Altitude 26217 ft
19:25 Wind:210º@009 Knots Heading: 046º Ground Speed: 458 Knots Altitude 26197 ft
19:30 TOD
19:30 Fuel Weight: 13501 Lb
19:40 Wind:278º@008 Knots Heading: 145º Ground Speed: 302 Knots Altitude 11538 ft
19:46 Flaps:1 at 187 Knots
19:51 Flaps:2 at 171 Knots
19:51 Gear Down: 189 Knots
19:54 Flaps:3 at 156 Knots
19:55 Wind:293º@003 Knots Heading: 296º Ground Speed: 149 Knots Altitude 830 ft
19:55 Flaps:4 at 154 Knots
19:55 TouchDown:Rate -27 ft/min Speed: 131 Knots
19:56 VATSIM:LEVC 261930Z 30003KT 260V330 CAVOK 03/M04 Q1019 NOSIG
19:56 Land
19:56 Wind:285º@003 Knots
19:56 Heading: 295º
19:56 Flight Duration: 01:01
19:56 Landing Weight: 196645 Lbs
19:56 POS N39º 29´ 26´´ W000º 29´ 06´´
20:00 Parking brakes on
20:00 Block to Block Duration: 01:12
20:00 Final Fuel: 10520 Lbls
20:00 Spent Fuel: 13481 Lbls
20:00 Flight Length: 349 NM
20:00 TOD Land Length: 119 NM

Exportar CSV

Powered by Drupal - Modified by Danger4k